VOZ1846 YPPD-YPPH
Flight info
| Callsign | VOZ1846 |
|---|---|
| Flight time | N/A |
| Altitude | 38000 |
| Route | PD Q9 AVPAL Q38 PH |
| Aircraft | B738/M-SDE2E3FGHIRWXY/LB1 |
Departure
| Time | 2026-04-28 18:19 |
|---|---|
| Airport | Port Hedland International Airport (YPPD) |
Arrival
| Time | N/A |
|---|---|
| Airport | Perth International Airport (YPPH) |
| Time | Latitude | Longitude | Altitude | Speed | Heading |
|---|---|---|---|---|---|
| 2026-04-28 17:58 | -20.37861 | 118.63094 | 32 ft | 0 kts | 49° |
| 2026-04-28 18:14 | -20.37860 | 118.63095 | 32 ft | 1 kts | 49° |
| 2026-04-28 18:14 | -20.37854 | 118.63106 | 32 ft | 2 kts | 73° |
| 2026-04-28 18:14 | -20.37866 | 118.63117 | 32 ft | 2 kts | 173° |
| 2026-04-28 18:15 | -20.37879 | 118.63103 | 31 ft | 3 kts | 231° |
| 2026-04-28 18:15 | -20.37895 | 118.63092 | 31 ft | 3 kts | 198° |
| 2026-04-28 18:15 | -20.37916 | 118.63081 | 32 ft | 4 kts | 232° |
| 2026-04-28 18:15 | -20.37932 | 118.63043 | 30 ft | 10 kts | 245° |
| 2026-04-28 18:16 | -20.37998 | 118.62943 | 32 ft | 20 kts | 229° |
| 2026-04-28 18:16 | -20.38076 | 118.62831 | 32 ft | 19 kts | 272° |
| 2026-04-28 18:16 | -20.37991 | 118.62731 | 31 ft | 18 kts | 318° |
| 2026-04-28 18:16 | -20.37868 | 118.62613 | 33 ft | 31 kts | 318° |
| 2026-04-28 18:17 | -20.37698 | 118.62441 | 34 ft | 34 kts | 317° |
| 2026-04-28 18:17 | -20.37525 | 118.62286 | 34 ft | 29 kts | 322° |
| 2026-04-28 18:17 | -20.37394 | 118.62181 | 33 ft | 18 kts | 317° |
| 2026-04-28 18:17 | -20.37445 | 118.62133 | 33 ft | 15 kts | 141° |
| 2026-04-28 18:18 | -20.37475 | 118.62226 | 30 ft | 14 kts | 140° |
| 2026-04-28 18:18 | -20.37657 | 118.62401 | 33 ft | 70 kts | 138° |
| 2026-04-28 18:18 | -20.37978 | 118.62714 | 32 ft | 118 kts | 137° |
| 2026-04-28 18:18 | -20.38736 | 118.63457 | 102 ft | 172 kts | 138° |
| 2026-04-28 18:19 | -20.39616 | 118.64332 | 950 ft | 172 kts | 137° |
| 2026-04-28 18:19 | -20.40593 | 118.65109 | 1702 ft | 183 kts | 155° |
| 2026-04-28 18:19 | -20.41857 | 118.65432 | 2337 ft | 192 kts | 179° |
| 2026-04-28 18:19 | -20.43177 | 118.65251 | 3172 ft | 190 kts | 195° |
| 2026-04-28 18:20 | -20.44399 | 118.64856 | 4154 ft | 180 kts | 198° |
| 2026-04-28 18:20 | -20.45633 | 118.64412 | 4702 ft | 196 kts | 199° |
| 2026-04-28 18:20 | -20.46987 | 118.64003 | 5181 ft | 207 kts | 194° |
| 2026-04-28 18:20 | -20.48379 | 118.63598 | 5784 ft | 208 kts | 196° |
| 2026-04-28 18:21 | -20.49388 | 118.63293 | 6120 ft | 217 kts | 195° |
| 2026-04-28 18:21 | -20.50958 | 118.62923 | 6308 ft | 245 kts | 191° |
| 2026-04-28 18:21 | -20.52715 | 118.62572 | 6630 ft | 267 kts | 191° |
| 2026-04-28 18:21 | -20.54581 | 118.62218 | 7250 ft | 276 kts | 190° |
| 2026-04-28 18:22 | -20.56487 | 118.61862 | 8019 ft | 280 kts | 190° |
| 2026-04-28 18:22 | -20.58411 | 118.61505 | 8802 ft | 282 kts | 190° |
| 2026-04-28 18:22 | -20.60356 | 118.61146 | 9556 ft | 286 kts | 190° |
| 2026-04-28 18:22 | -20.62329 | 118.60782 | 10281 ft | 290 kts | 190° |
| 2026-04-28 18:23 | -20.64384 | 118.60403 | 10565 ft | 312 kts | 190° |
| 2026-04-28 18:23 | -20.66599 | 118.59994 | 10750 ft | 334 kts | 190° |
| 2026-04-28 18:23 | -20.68949 | 118.59561 | 11116 ft | 349 kts | 190° |
| 2026-04-28 18:23 | -20.71365 | 118.59117 | 11715 ft | 355 kts | 190° |
| 2026-04-28 18:24 | -20.72982 | 118.58819 | 12191 ft | 357 kts | 190° |
| 2026-04-28 18:24 | -20.75435 | 118.58368 | 12502 ft | 360 kts | 189° |
| 2026-04-28 18:24 | -20.78793 | 118.57749 | 13191 ft | 370 kts | 190° |
| 2026-04-28 18:24 | -20.81344 | 118.57279 | 13821 ft | 373 kts | 191° |
| 2026-04-28 18:25 | -20.83911 | 118.56806 | 14415 ft | 376 kts | 191° |
| 2026-04-28 18:25 | -20.86496 | 118.56330 | 15015 ft | 378 kts | 191° |
| 2026-04-28 18:25 | -20.89099 | 118.55849 | 15612 ft | 381 kts | 192° |
| 2026-04-28 18:26 | -20.94367 | 118.54877 | 16786 ft | 387 kts | 192° |
| 2026-04-28 18:26 | -20.97037 | 118.54383 | 17350 ft | 391 kts | 193° |
| 2026-04-28 18:26 | -20.99730 | 118.53885 | 17906 ft | 394 kts | 193° |
| 2026-04-28 18:26 | -21.02447 | 118.53383 | 18432 ft | 398 kts | 193° |
| 2026-04-28 18:27 | -21.05184 | 118.52877 | 18906 ft | 401 kts | 193° |
| 2026-04-28 18:27 | -21.07947 | 118.52366 | 19367 ft | 405 kts | 193° |
| 2026-04-28 18:27 | -21.10735 | 118.51850 | 19826 ft | 408 kts | 193° |
| 2026-04-28 18:27 | -21.13550 | 118.51329 | 20268 ft | 412 kts | 193° |
| 2026-04-28 18:28 | -21.16383 | 118.50804 | 20727 ft | 415 kts | 193° |
| 2026-04-28 18:28 | -21.19205 | 118.50282 | 21165 ft | 419 kts | 194° |
| 2026-04-28 18:28 | -21.22089 | 118.49747 | 21593 ft | 422 kts | 194° |
| 2026-04-28 18:28 | -21.24998 | 118.49208 | 22022 ft | 426 kts | 194° |
| 2026-04-28 18:29 | -21.27929 | 118.48665 | 22450 ft | 429 kts | 194° |
| 2026-04-28 18:29 | -21.30876 | 118.48118 | 22866 ft | 432 kts | 194° |
| 2026-04-28 18:29 | -21.33853 | 118.47566 | 23274 ft | 436 kts | 194° |
| 2026-04-28 18:29 | -21.36857 | 118.47008 | 23653 ft | 439 kts | 194° |
| 2026-04-28 18:30 | -21.39876 | 118.46448 | 24002 ft | 441 kts | 194° |
| 2026-04-28 18:30 | -21.41921 | 118.46068 | 24258 ft | 442 kts | 194° |
| 2026-04-28 18:30 | -21.45952 | 118.45320 | 24733 ft | 445 kts | 194° |
| 2026-04-28 18:30 | -21.49008 | 118.44752 | 25087 ft | 447 kts | 194° |
| 2026-04-28 18:31 | -21.52079 | 118.44180 | 25425 ft | 449 kts | 195° |
| 2026-04-28 18:31 | -21.55166 | 118.43606 | 25774 ft | 451 kts | 195° |
| 2026-04-28 18:31 | -21.58267 | 118.43029 | 26111 ft | 453 kts | 195° |
| 2026-04-28 18:31 | -21.61375 | 118.42449 | 26447 ft | 455 kts | 195° |
| 2026-04-28 18:32 | -21.64506 | 118.41866 | 26771 ft | 457 kts | 195° |
| 2026-04-28 18:32 | -21.67651 | 118.41280 | 27090 ft | 460 kts | 195° |
| 2026-04-28 18:32 | -21.70805 | 118.40691 | 27411 ft | 461 kts | 195° |
| 2026-04-28 18:32 | -21.73978 | 118.40099 | 27713 ft | 464 kts | 195° |
| 2026-04-28 18:33 | -21.77161 | 118.39505 | 28020 ft | 465 kts | 195° |
| 2026-04-28 18:33 | -21.80359 | 118.38908 | 28332 ft | 467 kts | 195° |
| 2026-04-28 18:33 | -21.83566 | 118.38309 | 28642 ft | 469 kts | 195° |
| 2026-04-28 18:33 | -21.86787 | 118.37707 | 28924 ft | 471 kts | 196° |
| 2026-04-28 18:34 | -21.90019 | 118.37102 | 29215 ft | 473 kts | 196° |
| 2026-04-28 18:34 | -21.93267 | 118.36494 | 29483 ft | 475 kts | 196° |
| 2026-04-28 18:34 | -21.96528 | 118.35884 | 29760 ft | 476 kts | 196° |
| 2026-04-28 18:34 | -21.99796 | 118.35272 | 30023 ft | 478 kts | 196° |
| 2026-04-28 18:35 | -22.03079 | 118.34657 | 30302 ft | 478 kts | 196° |
| 2026-04-28 18:35 | -22.06355 | 118.34045 | 30632 ft | 477 kts | 196° |
| 2026-04-28 18:35 | -22.09621 | 118.33434 | 30962 ft | 476 kts | 196° |
| 2026-04-28 18:35 | -22.12887 | 118.32822 | 31257 ft | 476 kts | 197° |
| 2026-04-28 18:36 | -22.16151 | 118.32209 | 31536 ft | 477 kts | 197° |
| 2026-04-28 18:36 | -22.19417 | 118.31596 | 31840 ft | 476 kts | 197° |
| 2026-04-28 18:36 | -22.22636 | 118.30991 | 32156 ft | 476 kts | 197° |
| 2026-04-28 18:36 | -22.25899 | 118.30378 | 32472 ft | 475 kts | 197° |
| 2026-04-28 18:37 | -22.29155 | 118.29766 | 32743 ft | 475 kts | 197° |
| 2026-04-28 18:37 | -22.32415 | 118.29152 | 33046 ft | 475 kts | 197° |
| 2026-04-28 18:37 | -22.35673 | 118.28539 | 33354 ft | 475 kts | 197° |
| 2026-04-28 18:37 | -22.38927 | 118.27926 | 33674 ft | 474 kts | 198° |
| 2026-04-28 18:38 | -22.42177 | 118.27314 | 33982 ft | 474 kts | 198° |
| 2026-04-28 18:38 | -22.45426 | 118.26702 | 34243 ft | 474 kts | 198° |
| 2026-04-28 18:38 | -22.48671 | 118.26090 | 34528 ft | 473 kts | 198° |
| 2026-04-28 18:38 | -22.51907 | 118.25481 | 34829 ft | 471 kts | 198° |
| 2026-04-28 18:39 | -22.55131 | 118.24873 | 35098 ft | 470 kts | 198° |
| 2026-04-28 18:39 | -22.58275 | 118.24278 | 35296 ft | 471 kts | 198° |
| 2026-04-28 18:39 | -22.61501 | 118.23668 | 35583 ft | 469 kts | 199° |
| 2026-04-28 18:39 | -22.64709 | 118.23063 | 35909 ft | 467 kts | 199° |
| 2026-04-28 18:40 | -22.67909 | 118.22458 | 36197 ft | 466 kts | 199° |
| 2026-04-28 18:40 | -22.71101 | 118.21855 | 36437 ft | 465 kts | 199° |
| 2026-04-28 18:40 | -22.74291 | 118.21250 | 36682 ft | 465 kts | 199° |
| 2026-04-28 18:40 | -22.77474 | 118.20647 | 36934 ft | 464 kts | 199° |
| 2026-04-28 18:41 | -22.80654 | 118.20044 | 37201 ft | 463 kts | 199° |
| 2026-04-28 18:41 | -22.83823 | 118.19444 | 37471 ft | 462 kts | 199° |
| 2026-04-28 18:41 | -22.86982 | 118.18846 | 37762 ft | 460 kts | 200° |
| 2026-04-28 18:41 | -22.90128 | 118.18249 | 38019 ft | 459 kts | 200° |
| 2026-04-28 18:42 | -22.93279 | 118.17649 | 38018 ft | 462 kts | 200° |
| 2026-04-28 18:42 | -22.99606 | 118.16444 | 38025 ft | 460 kts | 200° |
| 2026-04-28 18:43 | -23.05883 | 118.15254 | 38023 ft | 456 kts | 200° |
| 2026-04-28 18:43 | -23.12118 | 118.14069 | 38015 ft | 454 kts | 200° |
| 2026-04-28 18:44 | -23.18317 | 118.12887 | 38020 ft | 452 kts | 200° |
| 2026-04-28 18:44 | -23.27548 | 118.11124 | 38020 ft | 451 kts | 200° |
| 2026-04-28 18:45 | -23.33734 | 118.09940 | 38009 ft | 452 kts | 200° |
| 2026-04-28 18:45 | -23.39939 | 118.08752 | 38012 ft | 454 kts | 200° |
| 2026-04-28 18:46 | -23.46171 | 118.07559 | 38007 ft | 455 kts | 200° |
| 2026-04-28 18:46 | -23.52420 | 118.06364 | 38014 ft | 457 kts | 199° |
| 2026-04-28 18:47 | -23.57074 | 118.05473 | 38011 ft | 456 kts | 199° |